Hugo, OK (74743)

12:57 AM CST on November 24, 2014 (GMT -0600)
Stamper Municipal | Change Station
CLOSE
Current Station
Airport
Location: Hugo,
Elevation: 571 ft
Nearby Weather Stations

Elev 571 ft 34.03 °N, 95.54 °W | Updated 22 minutes ago

Mostly Cloudy
Mostly Cloudy
50 °F
Feels Like 50 °F
N
20
Wind Variable Wind from NNW
Gusts 33 mph

Today
High -- | Low -- °F
--% Chance of Precip.
Yesterday
High -- | Low -- °F
Precip. -- in
7:03 AM 5:14 PM
Waxing Crescent, 4% visible
Pressure 29.75 in
Visibility 10.0 miles
Clouds Overcast 2900 ft
Dew Point 37 °F
Humidity 62%
Rainfall 0.00 in
Snow Depth Not available.
UV 0 out of 12
Pollen 3.70 out of 12
Air Quality Not available.
Flu Activity Not available.
METAR KHHW 240635Z AUTO 33017G29KT 10SM OVC029 10/03 A2975 RMK AO2 T00990029

More Conditions Fewer Conditions

Pressure 29.75 in
Visibility 10.0 miles
Clouds Overcast 2900 ft
Dew Point 37 °F
Humidity 62%
Rainfall 0.00 in
Snow Depth Not available.
UV 0 out of 12
Pollen 3.70 out of 12
Air Quality Not available.
Flu Activity Not available.
METAR KHHW 240635Z AUTO 33017G29KT 10SM OVC029 10/03 A2975 RMK AO2 T00990029

More Conditions Fewer Conditions

Nowcast | as of 11:01 PM CST on November 23, 2014

At 1055 PM...National Weather Service Doppler radars indicated areas of light to moderate rain across far eastern Oklahoma and northwest Arkansas. The activity was mainly east of a Vinita to Muskogee line and generally north of Interstate 40. Movement was to the east at 30 mph. Through 1 am...the rain is expected to move out of Oklahoma and continue across northwest Arkansas. Rainfall amounts will generally be below one-tenth of an inch.

×

10-Day Weather Forecast

Almanac

Astronomy

Nov. 24, 2014 Rise Set
Actual Time
Civil Twilight
Nautical Twilight
Astronomical Twilight
Moon
Length of Visible Light
Length of Day
Tomorrow will be .
, % of the Moon is Illuminated

Today's Extremes

State Highs State Lows

Community

WunderPhotos

Upload Photos

1,773,294 photos uploaded!

WunderBlogs® & News

Nearby

Air Quality

  Air Quality AQ Index Pollutant
Not available.

Snow Depth

Station Depth Elevation

Earthquake Activity

City Distance Mag. Time & Date
Minimum magnitude displayed is 2.5.

Coastal Water Temperatures

Place Temperature

Nearby Weather Stations